Pagrindinis puslapis
METAR-TAF:

METAR-TAF

Oro uostai :

Scammon Bay, Aliaska, Jungtinės Amerikos Valstijos

platuma: 61-50-43N, ilguma: 165-34-17W, Aukštis: 4 m

Dabartinis oras

Ataskaita buvo paskelbta 33 minutes, ne 19:56 UTC
Vėjas 14 kt iš Rytų
Temperatūra -1°C
Drėgmė 69%
Slėgis 1024 hPa
Matomumas: 16.1 km
Giedras dangus

METAR: PACM 221956Z AUTO 10014KT 10SM CLR M01/M06 A3024 RMK AO2 SLP235 T10061056 FZRANO PNO $

Laikas: 12:29 (20:29 UTC)


TAF: trūkstamas

Orai ataskaitas ir orų prognozės (METAR, TAF).

turimą stotys yra geltonos ir raudonos taškus žemėlapyje.

Perkelti pele per norėdami pamatyti stoties vardą.

Tada spustelėkite, norėdami matyti oro stebėjimo ir prognozės.

Norėdami pakeisti žemėlapį: spustelėkite ant žalios mygtukų su juodo kryžiaus žemyn,; žalią mygtuką su brūkšneliu, jei norite nutolinti; arba žalių rodyklių gretimoms žemėlapius.


METAR-TAF: